sensor_id;sensor_type;location;lat;lon;timestamp;temperature;humidity
35027;DHT22;60696;51.426;6.934;2023-03-26T00:01:19;8.20;99.90
35027;DHT22;60696;51.426;6.934;2023-03-26T00:03:46;8.20;99.90
35027;DHT22;60696;51.426;6.934;2023-03-26T00:06:26;8.20;99.90
35027;DHT22;60696;51.426;6.934;2023-03-26T00:08:55;8.20;99.90
35027;DHT22;60696;51.426;6.934;2023-03-26T00:11:23;8.20;99.90
35027;DHT22;60696;51.426;6.934;2023-03-26T00:13:49;8.30;99.90
35027;DHT22;60696;51.426;6.934;2023-03-26T00:16:18;8.30;99.90
35027;DHT22;60696;51.426;6.934;2023-03-26T00:18:45;8.30;99.90
35027;DHT22;60696;51.426;6.934;2023-03-26T00:21:13;8.30;99.90
35027;DHT22;60696;51.426;6.934;2023-03-26T00:23:39;8.30;99.90
35027;DHT22;60696;51.426;6.934;2023-03-26T00:26:07;8.30;99.90
35027;DHT22;60696;51.426;6.934;2023-03-26T00:28:37;8.20;99.90
35027;DHT22;60696;51.426;6.934;2023-03-26T00:31:05;8.20;99.90
35027;DHT22;60696;51.426;6.934;2023-03-26T00:33:32;8.20;99.90
35027;DHT22;60696;51.426;6.934;2023-03-26T00:35:59;8.20;99.90
35027;DHT22;60696;51.426;6.934;2023-03-26T00:38:26;8.10;99.90
35027;DHT22;60696;51.426;6.934;2023-03-26T00:40:52;8.10;99.90
35027;DHT22;60696;51.426;6.934;2023-03-26T00:43:19;8.20;99.90
35027;DHT22;60696;51.426;6.934;2023-03-26T00:45:51;8.20;99.90
35027;DHT22;60696;51.426;6.934;2023-03-26T00:48:17;8.20;99.90
35027;DHT22;60696;51.426;6.934;2023-03-26T00:50:44;8.20;99.90
35027;DHT22;60696;51.426;6.934;2023-03-26T00:53:11;8.20;99.90
35027;DHT22;60696;51.426;6.934;2023-03-26T00:55:41;8.20;99.90
35027;DHT22;60696;51.426;6.934;2023-03-26T00:58:08;8.10;99.90
35027;DHT22;60696;51.426;6.934;2023-03-26T01:00:45;8.10;99.90
35027;DHT22;60696;51.426;6.934;2023-03-26T01:03:14;8.20;99.90
35027;DHT22;60696;51.426;6.934;2023-03-26T01:05:46;8.20;99.90
35027;DHT22;60696;51.426;6.934;2023-03-26T01:11:01;8.20;99.90
35027;DHT22;60696;51.426;6.934;2023-03-26T01:13:36;8.10;99.90
35027;DHT22;60696;51.426;6.934;2023-03-26T01:16:06;8.20;99.90
35027;DHT22;60696;51.426;6.934;2023-03-26T01:18:34;8.20;99.90
35027;DHT22;60696;51.426;6.934;2023-03-26T01:21:07;8.20;99.90
35027;DHT22;60696;51.426;6.934;2023-03-26T01:23:54;8.20;99.90
35027;DHT22;60696;51.426;6.934;2023-03-26T01:26:29;8.20;99.90
35027;DHT22;60696;51.426;6.934;2023-03-26T01:29:01;8.20;99.90
35027;DHT22;60696;51.426;6.934;2023-03-26T01:31:39;8.20;99.90
35027;DHT22;60696;51.426;6.934;2023-03-26T01:34:23;8.20;99.90
35027;DHT22;60696;51.426;6.934;2023-03-26T01:40:08;8.20;99.90
35027;DHT22;60696;51.426;6.934;2023-03-26T01:42:42;8.20;99.90
35027;DHT22;60696;51.426;6.934;2023-03-26T01:45:15;8.20;99.90
35027;DHT22;60696;51.426;6.934;2023-03-26T01:47:44;8.20;99.90
35027;DHT22;60696;51.426;6.934;2023-03-26T01:50:10;8.20;99.90
35027;DHT22;60696;51.426;6.934;2023-03-26T01:52:36;8.20;99.90
35027;DHT22;60696;51.426;6.934;2023-03-26T01:55:03;8.20;99.90
35027;DHT22;60696;51.426;6.934;2023-03-26T01:57:58;8.20;99.90
35027;DHT22;60696;51.426;6.934;2023-03-26T02:00:32;8.10;99.90
35027;DHT22;60696;51.426;6.934;2023-03-26T02:03:26;8.00;99.90
35027;DHT22;60696;51.426;6.934;2023-03-26T02:11:08;7.90;99.90
35027;DHT22;60696;51.426;6.934;2023-03-26T02:13:39;7.90;99.90
35027;DHT22;60696;51.426;6.934;2023-03-26T02:16:08;7.80;99.90
35027;DHT22;60696;51.426;6.934;2023-03-26T02:18:33;7.80;99.90
35027;DHT22;60696;51.426;6.934;2023-03-26T02:21:11;7.80;99.90
35027;DHT22;60696;51.426;6.934;2023-03-26T02:23:41;7.70;99.90
35027;DHT22;60696;51.426;6.934;2023-03-26T02:26:13;7.70;99.90
35027;DHT22;60696;51.426;6.934;2023-03-26T02:28:40;7.80;99.90
35027;DHT22;60696;51.426;6.934;2023-03-26T02:31:06;7.80;99.90
35027;DHT22;60696;51.426;6.934;2023-03-26T02:33:35;7.90;99.90
35027;DHT22;60696;51.426;6.934;2023-03-26T02:36:02;7.90;99.90
35027;DHT22;60696;51.426;6.934;2023-03-26T02:38:29;8.00;99.90
35027;DHT22;60696;51.426;6.934;2023-03-26T02:40:58;8.00;99.90
35027;DHT22;60696;51.426;6.934;2023-03-26T02:43:23;8.10;99.90
35027;DHT22;60696;51.426;6.934;2023-03-26T02:45:49;8.10;99.90
35027;DHT22;60696;51.426;6.934;2023-03-26T02:48:15;8.10;99.90
35027;DHT22;60696;51.426;6.934;2023-03-26T02:50:41;8.10;99.90
35027;DHT22;60696;51.426;6.934;2023-03-26T02:53:07;8.20;99.90
35027;DHT22;60696;51.426;6.934;2023-03-26T02:55:33;8.20;99.90
35027;DHT22;60696;51.426;6.934;2023-03-26T02:57:58;8.20;99.90
35027;DHT22;60696;51.426;6.934;2023-03-26T03:00:24;8.20;99.90
35027;DHT22;60696;51.426;6.934;2023-03-26T03:02:50;8.20;99.90
35027;DHT22;60696;51.426;6.934;2023-03-26T03:05:17;8.20;99.90
35027;DHT22;60696;51.426;6.934;2023-03-26T03:07:43;8.20;99.90
35027;DHT22;60696;51.426;6.934;2023-03-26T03:10:12;8.20;99.90
35027;DHT22;60696;51.426;6.934;2023-03-26T03:12:39;8.20;99.90
35027;DHT22;60696;51.426;6.934;2023-03-26T03:15:06;8.20;99.90
35027;DHT22;60696;51.426;6.934;2023-03-26T03:17:32;8.20;99.90
35027;DHT22;60696;51.426;6.934;2023-03-26T03:19:57;8.30;99.90
35027;DHT22;60696;51.426;6.934;2023-03-26T03:22:23;8.30;99.90
35027;DHT22;60696;51.426;6.934;2023-03-26T03:24:49;8.20;99.90
35027;DHT22;60696;51.426;6.934;2023-03-26T03:27:16;8.20;99.90
35027;DHT22;60696;51.426;6.934;2023-03-26T03:29:44;8.20;99.90
35027;DHT22;60696;51.426;6.934;2023-03-26T03:32:10;8.10;99.90
35027;DHT22;60696;51.426;6.934;2023-03-26T03:34:36;8.10;99.90
35027;DHT22;60696;51.426;6.934;2023-03-26T03:37:03;8.10;99.90
35027;DHT22;60696;51.426;6.934;2023-03-26T03:39:29;8.10;99.90
35027;DHT22;60696;51.426;6.934;2023-03-26T03:41:54;8.10;99.90
35027;DHT22;60696;51.426;6.934;2023-03-26T03:44:20;8.20;99.90
35027;DHT22;60696;51.426;6.934;2023-03-26T03:46:45;8.20;99.90
35027;DHT22;60696;51.426;6.934;2023-03-26T03:49:13;8.20;99.90
35027;DHT22;60696;51.426;6.934;2023-03-26T03:51:39;8.20;99.90
35027;DHT22;60696;51.426;6.934;2023-03-26T03:54:05;8.30;99.90
35027;DHT22;60696;51.426;6.934;2023-03-26T03:56:31;8.30;99.90
35027;DHT22;60696;51.426;6.934;2023-03-26T03:58:56;8.30;99.90
35027;DHT22;60696;51.426;6.934;2023-03-26T04:01:23;8.30;99.90
35027;DHT22;60696;51.426;6.934;2023-03-26T04:03:48;8.20;99.90
35027;DHT22;60696;51.426;6.934;2023-03-26T04:06:14;8.20;99.90
35027;DHT22;60696;51.426;6.934;2023-03-26T04:08:43;8.20;99.90
35027;DHT22;60696;51.426;6.934;2023-03-26T04:11:10;8.10;99.90
35027;DHT22;60696;51.426;6.934;2023-03-26T04:13:36;8.00;99.90
35027;DHT22;60696;51.426;6.934;2023-03-26T04:16:01;7.90;99.90
35027;DHT22;60696;51.426;6.934;2023-03-26T04:18:27;7.80;99.90
35027;DHT22;60696;51.426;6.934;2023-03-26T04:20:54;7.80;99.90
35027;DHT22;60696;51.426;6.934;2023-03-26T04:23:20;7.80;99.90
35027;DHT22;60696;51.426;6.934;2023-03-26T04:25:51;7.80;99.90
35027;DHT22;60696;51.426;6.934;2023-03-26T04:28:32;7.80;99.90
35027;DHT22;60696;51.426;6.934;2023-03-26T04:31:00;7.80;99.90
35027;DHT22;60696;51.426;6.934;2023-03-26T04:33:29;7.80;99.90
35027;DHT22;60696;51.426;6.934;2023-03-26T04:35:55;7.80;99.90
35027;DHT22;60696;51.426;6.934;2023-03-26T04:38:26;7.70;99.90
35027;DHT22;60696;51.426;6.934;2023-03-26T04:40:52;7.70;99.90
35027;DHT22;60696;51.426;6.934;2023-03-26T04:43:17;7.70;99.90
35027;DHT22;60696;51.426;6.934;2023-03-26T04:45:43;7.80;99.90
35027;DHT22;60696;51.426;6.934;2023-03-26T04:48:11;7.80;99.90
35027;DHT22;60696;51.426;6.934;2023-03-26T04:50:43;7.80;99.90
35027;DHT22;60696;51.426;6.934;2023-03-26T04:53:15;7.90;99.90
35027;DHT22;60696;51.426;6.934;2023-03-26T04:55:54;7.90;99.90
35027;DHT22;60696;51.426;6.934;2023-03-26T04:58:21;8.00;99.90
35027;DHT22;60696;51.426;6.934;2023-03-26T05:00:46;8.10;99.90
35027;DHT22;60696;51.426;6.934;2023-03-26T05:03:13;8.10;99.90
35027;DHT22;60696;51.426;6.934;2023-03-26T05:05:39;8.10;99.90
35027;DHT22;60696;51.426;6.934;2023-03-26T05:08:05;8.00;99.90
35027;DHT22;60696;51.426;6.934;2023-03-26T05:10:31;8.10;99.90
35027;DHT22;60696;51.426;6.934;2023-03-26T05:12:57;8.10;99.90
35027;DHT22;60696;51.426;6.934;2023-03-26T05:15:23;8.00;99.90
35027;DHT22;60696;51.426;6.934;2023-03-26T05:17:48;8.00;99.90
35027;DHT22;60696;51.426;6.934;2023-03-26T05:20:22;8.00;99.90
35027;DHT22;60696;51.426;6.934;2023-03-26T05:22:49;8.00;99.90
35027;DHT22;60696;51.426;6.934;2023-03-26T05:25:16;8.00;99.90
35027;DHT22;60696;51.426;6.934;2023-03-26T05:27:42;8.00;99.90
35027;DHT22;60696;51.426;6.934;2023-03-26T05:30:08;7.90;99.90
35027;DHT22;60696;51.426;6.934;2023-03-26T05:32:34;8.00;99.90
35027;DHT22;60696;51.426;6.934;2023-03-26T05:35:00;7.90;99.90
35027;DHT22;60696;51.426;6.934;2023-03-26T05:37:29;7.90;99.90
35027;DHT22;60696;51.426;6.934;2023-03-26T05:39:57;7.90;99.90
35027;DHT22;60696;51.426;6.934;2023-03-26T05:42:22;8.00;99.90
35027;DHT22;60696;51.426;6.934;2023-03-26T05:44:48;8.10;99.90
35027;DHT22;60696;51.426;6.934;2023-03-26T05:47:14;8.10;99.90
35027;DHT22;60696;51.426;6.934;2023-03-26T05:49:40;8.20;99.90
35027;DHT22;60696;51.426;6.934;2023-03-26T05:52:05;8.20;99.90
35027;DHT22;60696;51.426;6.934;2023-03-26T05:54:31;8.20;99.90
35027;DHT22;60696;51.426;6.934;2023-03-26T05:56:57;8.20;99.90
35027;DHT22;60696;51.426;6.934;2023-03-26T05:59:23;8.30;99.90
35027;DHT22;60696;51.426;6.934;2023-03-26T06:01:49;8.20;99.90
35027;DHT22;60696;51.426;6.934;2023-03-26T06:04:16;8.20;99.90
35027;DHT22;60696;51.426;6.934;2023-03-26T06:06:42;8.10;99.90
35027;DHT22;60696;51.426;6.934;2023-03-26T06:09:09;8.00;99.90
35027;DHT22;60696;51.426;6.934;2023-03-26T06:11:37;8.00;99.90
35027;DHT22;60696;51.426;6.934;2023-03-26T06:14:03;8.00;99.90
35027;DHT22;60696;51.426;6.934;2023-03-26T06:16:29;8.00;99.90
35027;DHT22;60696;51.426;6.934;2023-03-26T06:18:55;7.90;99.90
35027;DHT22;60696;51.426;6.934;2023-03-26T06:21:20;7.90;99.90
35027;DHT22;60696;51.426;6.934;2023-03-26T06:23:46;7.90;99.90
35027;DHT22;60696;51.426;6.934;2023-03-26T06:26:13;7.90;99.90
35027;DHT22;60696;51.426;6.934;2023-03-26T06:28:39;7.80;99.90
35027;DHT22;60696;51.426;6.934;2023-03-26T06:31:04;7.90;99.90
35027;DHT22;60696;51.426;6.934;2023-03-26T06:33:31;7.80;99.90
35027;DHT22;60696;51.426;6.934;2023-03-26T06:35:57;7.80;99.90
35027;DHT22;60696;51.426;6.934;2023-03-26T06:38:23;7.80;99.90
35027;DHT22;60696;51.426;6.934;2023-03-26T06:40:48;7.80;99.90
35027;DHT22;60696;51.426;6.934;2023-03-26T06:43:14;7.80;99.90
35027;DHT22;60696;51.426;6.934;2023-03-26T06:45:40;7.90;99.90
35027;DHT22;60696;51.426;6.934;2023-03-26T06:48:06;8.00;99.90
35027;DHT22;60696;51.426;6.934;2023-03-26T06:50:32;8.00;99.90
35027;DHT22;60696;51.426;6.934;2023-03-26T06:52:58;8.20;99.90
35027;DHT22;60696;51.426;6.934;2023-03-26T06:55:24;8.20;99.90
35027;DHT22;60696;51.426;6.934;2023-03-26T06:57:52;8.20;99.90
35027;DHT22;60696;51.426;6.934;2023-03-26T07:00:18;8.20;99.90
35027;DHT22;60696;51.426;6.934;2023-03-26T07:02:44;8.20;99.90
35027;DHT22;60696;51.426;6.934;2023-03-26T07:05:13;8.20;99.90
35027;DHT22;60696;51.426;6.934;2023-03-26T07:07:39;8.20;99.90
35027;DHT22;60696;51.426;6.934;2023-03-26T07:10:05;8.20;99.90
35027;DHT22;60696;51.426;6.934;2023-03-26T07:12:31;8.20;99.90
35027;DHT22;60696;51.426;6.934;2023-03-26T07:14:58;8.20;99.90
35027;DHT22;60696;51.426;6.934;2023-03-26T07:17:24;8.20;99.90
35027;DHT22;60696;51.426;6.934;2023-03-26T07:19:50;8.20;99.90
35027;DHT22;60696;51.426;6.934;2023-03-26T07:22:22;8.30;99.90
35027;DHT22;60696;51.426;6.934;2023-03-26T07:24:48;8.40;99.90
35027;DHT22;60696;51.426;6.934;2023-03-26T07:29:58;8.30;99.90
35027;DHT22;60696;51.426;6.934;2023-03-26T07:35:45;8.40;99.90
35027;DHT22;60696;51.426;6.934;2023-03-26T07:38:21;8.30;99.90
35027;DHT22;60696;51.426;6.934;2023-03-26T07:40:57;8.30;99.90
35027;DHT22;60696;51.426;6.934;2023-03-26T07:43:30;8.30;99.90
35027;DHT22;60696;51.426;6.934;2023-03-26T07:45:58;8.30;99.90
35027;DHT22;60696;51.426;6.934;2023-03-26T07:48:25;8.30;99.90
35027;DHT22;60696;51.426;6.934;2023-03-26T07:50:53;8.30;99.90
35027;DHT22;60696;51.426;6.934;2023-03-26T07:53:19;8.20;99.90
35027;DHT22;60696;51.426;6.934;2023-03-26T07:58:24;8.30;99.90
35027;DHT22;60696;51.426;6.934;2023-03-26T08:00:59;8.20;99.90
35027;DHT22;60696;51.426;6.934;2023-03-26T08:04:08;8.30;99.90
35027;DHT22;60696;51.426;6.934;2023-03-26T08:06:37;8.30;99.90
35027;DHT22;60696;51.426;6.934;2023-03-26T08:09:26;8.30;99.90
35027;DHT22;60696;51.426;6.934;2023-03-26T08:12:05;8.30;99.90
35027;DHT22;60696;51.426;6.934;2023-03-26T08:14:43;8.40;99.90
35027;DHT22;60696;51.426;6.934;2023-03-26T08:17:37;8.50;99.90
35027;DHT22;60696;51.426;6.934;2023-03-26T08:25:58;8.50;99.90
35027;DHT22;60696;51.426;6.934;2023-03-26T08:31:55;8.70;99.90
35027;DHT22;60696;51.426;6.934;2023-03-26T08:34:22;8.80;99.90
35027;DHT22;60696;51.426;6.934;2023-03-26T08:36:47;8.70;99.90
35027;DHT22;60696;51.426;6.934;2023-03-26T08:39:13;8.80;99.90
35027;DHT22;60696;51.426;6.934;2023-03-26T08:47:15;9.00;99.90
35027;DHT22;60696;51.426;6.934;2023-03-26T09:03:48;9.10;99.90
35027;DHT22;60696;51.426;6.934;2023-03-26T09:25:50;9.10;99.90
35027;DHT22;60696;51.426;6.934;2023-03-26T09:36:31;9.00;99.90
35027;DHT22;60696;51.426;6.934;2023-03-26T09:44:17;9.20;99.90
35027;DHT22;60696;51.426;6.934;2023-03-26T09:54:45;8.90;99.90
35027;DHT22;60696;51.426;6.934;2023-03-26T10:00:07;8.90;99.90
35027;DHT22;60696;51.426;6.934;2023-03-26T10:08:27;8.60;99.90
35027;DHT22;60696;51.426;6.934;2023-03-26T10:16:53;8.60;99.90
35027;DHT22;60696;51.426;6.934;2023-03-26T10:22:06;8.90;99.90
35027;DHT22;60696;51.426;6.934;2023-03-26T10:27:50;8.70;99.90
35027;DHT22;60696;51.426;6.934;2023-03-26T10:32:57;8.40;99.90
35027;DHT22;60696;51.426;6.934;2023-03-26T10:41:15;8.20;99.90
35027;DHT22;60696;51.426;6.934;2023-03-26T10:46:46;8.30;99.90
35027;DHT22;60696;51.426;6.934;2023-03-26T10:49:36;8.30;99.90
35027;DHT22;60696;51.426;6.934;2023-03-26T10:52:07;8.30;99.90
35027;DHT22;60696;51.426;6.934;2023-03-26T10:54:52;8.20;99.90
35027;DHT22;60696;51.426;6.934;2023-03-26T10:57:28;8.20;99.90
35027;DHT22;60696;51.426;6.934;2023-03-26T11:00:04;8.20;99.90
35027;DHT22;60696;51.426;6.934;2023-03-26T11:02:45;8.40;99.90
35027;DHT22;60696;51.426;6.934;2023-03-26T11:08:18;8.40;99.90
35027;DHT22;60696;51.426;6.934;2023-03-26T11:10:57;8.50;99.90
35027;DHT22;60696;51.426;6.934;2023-03-26T11:16:03;8.50;99.90
35027;DHT22;60696;51.426;6.934;2023-03-26T11:18:42;8.60;99.90
35027;DHT22;60696;51.426;6.934;2023-03-26T11:21:25;8.50;99.90
35027;DHT22;60696;51.426;6.934;2023-03-26T11:26:52;8.60;99.90
35027;DHT22;60696;51.426;6.934;2023-03-26T11:29:54;8.50;99.90
35027;DHT22;60696;51.426;6.934;2023-03-26T11:32:36;8.30;99.90
35027;DHT22;60696;51.426;6.934;2023-03-26T11:35:25;8.20;99.90
35027;DHT22;60696;51.426;6.934;2023-03-26T11:37:56;8.20;99.90
35027;DHT22;60696;51.426;6.934;2023-03-26T11:40:28;8.30;99.90
35027;DHT22;60696;51.426;6.934;2023-03-26T11:43:00;8.10;99.90
35027;DHT22;60696;51.426;6.934;2023-03-26T11:45:30;8.20;99.90
35027;DHT22;60696;51.426;6.934;2023-03-26T11:50:29;8.30;99.90
35027;DHT22;60696;51.426;6.934;2023-03-26T11:52:58;8.40;99.90
35027;DHT22;60696;51.426;6.934;2023-03-26T11:55:26;8.30;99.90
35027;DHT22;60696;51.426;6.934;2023-03-26T11:57:54;8.00;99.90
35027;DHT22;60696;51.426;6.934;2023-03-26T12:00:22;8.10;99.90
35027;DHT22;60696;51.426;6.934;2023-03-26T12:02:56;8.20;99.90
35027;DHT22;60696;51.426;6.934;2023-03-26T12:05:24;8.50;99.90
35027;DHT22;60696;51.426;6.934;2023-03-26T12:07:59;8.60;99.90
35027;DHT22;60696;51.426;6.934;2023-03-26T12:10:36;8.70;99.90
35027;DHT22;60696;51.426;6.934;2023-03-26T12:13:32;8.50;99.90
35027;DHT22;60696;51.426;6.934;2023-03-26T12:16:08;8.40;99.90
35027;DHT22;60696;51.426;6.934;2023-03-26T12:18:33;8.50;99.90
35027;DHT22;60696;51.426;6.934;2023-03-26T12:21:11;8.70;99.90
35027;DHT22;60696;51.426;6.934;2023-03-26T12:23:59;8.90;99.90
35027;DHT22;60696;51.426;6.934;2023-03-26T12:26:42;9.00;99.90
35027;DHT22;60696;51.426;6.934;2023-03-26T12:29:13;8.60;99.90
35027;DHT22;60696;51.426;6.934;2023-03-26T12:34:33;8.70;99.90
35027;DHT22;60696;51.426;6.934;2023-03-26T12:37:00;8.70;99.90
35027;DHT22;60696;51.426;6.934;2023-03-26T12:39:27;9.00;99.90
35027;DHT22;60696;51.426;6.934;2023-03-26T12:41:55;9.00;99.90
35027;DHT22;60696;51.426;6.934;2023-03-26T12:46:50;9.00;99.90
35027;DHT22;60696;51.426;6.934;2023-03-26T12:49:19;8.70;99.90
35027;DHT22;60696;51.426;6.934;2023-03-26T12:52:03;8.80;99.90
35027;DHT22;60696;51.426;6.934;2023-03-26T13:00:04;9.00;99.90
35027;DHT22;60696;51.426;6.934;2023-03-26T13:14:37;9.50;99.90
35027;DHT22;60696;51.426;6.934;2023-03-26T13:19:40;9.50;99.90
35027;DHT22;60696;51.426;6.934;2023-03-26T13:27:56;9.60;99.90
35027;DHT22;60696;51.426;6.934;2023-03-26T13:30:57;9.60;99.90
35027;DHT22;60696;51.426;6.934;2023-03-26T13:33:49;9.50;99.90
35027;DHT22;60696;51.426;6.934;2023-03-26T13:39:26;9.70;99.90
35027;DHT22;60696;51.426;6.934;2023-03-26T13:42:29;9.60;99.90
35027;DHT22;60696;51.426;6.934;2023-03-26T13:47:56;9.50;99.90
35027;DHT22;60696;51.426;6.934;2023-03-26T13:50:24;9.40;99.90
35027;DHT22;60696;51.426;6.934;2023-03-26T13:55:34;9.30;99.90
35027;DHT22;60696;51.426;6.934;2023-03-26T13:58:10;9.20;99.90
35027;DHT22;60696;51.426;6.934;2023-03-26T14:01:05;9.20;99.90
35027;DHT22;60696;51.426;6.934;2023-03-26T14:03:41;9.20;99.90
35027;DHT22;60696;51.426;6.934;2023-03-26T14:09:09;9.20;99.90
35027;DHT22;60696;51.426;6.934;2023-03-26T14:14:17;9.20;99.90
35027;DHT22;60696;51.426;6.934;2023-03-26T14:16:49;9.30;99.90
35027;DHT22;60696;51.426;6.934;2023-03-26T14:25:26;9.90;99.90
35027;DHT22;60696;51.426;6.934;2023-03-26T14:31:18;9.70;99.90
35027;DHT22;60696;51.426;6.934;2023-03-26T14:37:04;9.40;99.90
35027;DHT22;60696;51.426;6.934;2023-03-26T14:39:56;9.50;99.90
35027;DHT22;60696;51.426;6.934;2023-03-26T14:53:28;9.20;99.90
35027;DHT22;60696;51.426;6.934;2023-03-26T15:04:49;8.90;99.90
35027;DHT22;60696;51.426;6.934;2023-03-26T15:07:37;8.90;99.90
35027;DHT22;60696;51.426;6.934;2023-03-26T15:10:34;8.80;99.90
35027;DHT22;60696;51.426;6.934;2023-03-26T15:24:56;8.50;99.90
35027;DHT22;60696;51.426;6.934;2023-03-26T15:42:30;8.70;99.90
35027;DHT22;60696;51.426;6.934;2023-03-26T15:50:52;8.60;99.90
35027;DHT22;60696;51.426;6.934;2023-03-26T15:53:38;8.40;99.90
35027;DHT22;60696;51.426;6.934;2023-03-26T16:01:37;8.20;99.90
35027;DHT22;60696;51.426;6.934;2023-03-26T16:06:46;8.00;99.90
35027;DHT22;60696;51.426;6.934;2023-03-26T16:17:01;8.00;99.90
35027;DHT22;60696;51.426;6.934;2023-03-26T16:25:23;7.90;99.90
35027;DHT22;60696;51.426;6.934;2023-03-26T16:28:15;7.90;99.90
35027;DHT22;60696;51.426;6.934;2023-03-26T16:30:42;7.80;99.90
35027;DHT22;60696;51.426;6.934;2023-03-26T16:41:33;7.80;99.90
35027;DHT22;60696;51.426;6.934;2023-03-26T16:44:09;7.80;99.90
35027;DHT22;60696;51.426;6.934;2023-03-26T16:46:51;7.80;99.90
35027;DHT22;60696;51.426;6.934;2023-03-26T16:54:49;7.70;99.90
35027;DHT22;60696;51.426;6.934;2023-03-26T17:00:26;7.80;99.90
35027;DHT22;60696;51.426;6.934;2023-03-26T17:08:53;7.70;99.90
35027;DHT22;60696;51.426;6.934;2023-03-26T17:19:45;7.70;99.90
35027;DHT22;60696;51.426;6.934;2023-03-26T17:25:01;7.70;99.90
35027;DHT22;60696;51.426;6.934;2023-03-26T17:27:46;7.60;99.90
35027;DHT22;60696;51.426;6.934;2023-03-26T17:30:40;7.70;99.90
35027;DHT22;60696;51.426;6.934;2023-03-26T17:33:27;7.70;99.90
35027;DHT22;60696;51.426;6.934;2023-03-26T17:37:02;7.60;99.90
35027;DHT22;60696;51.426;6.934;2023-03-26T17:39:21;7.60;99.90
35027;DHT22;60696;51.426;6.934;2023-03-26T17:42:26;7.60;99.90
35027;DHT22;60696;51.426;6.934;2023-03-26T17:44:57;8.10;99.90
35027;DHT22;60696;51.426;6.934;2023-03-26T17:47:38;8.20;99.90
35027;DHT22;60696;51.426;6.934;2023-03-26T17:50:21;8.10;99.90
35027;DHT22;60696;51.426;6.934;2023-03-26T17:52:55;8.20;99.90
35027;DHT22;60696;51.426;6.934;2023-03-26T17:55:36;8.20;99.90
35027;DHT22;60696;51.426;6.934;2023-03-26T17:58:13;7.80;99.90
35027;DHT22;60696;51.426;6.934;2023-03-26T18:00:42;7.70;99.90
35027;DHT22;60696;51.426;6.934;2023-03-26T18:03:22;7.60;99.90
35027;DHT22;60696;51.426;6.934;2023-03-26T18:06:32;7.50;99.90
35027;DHT22;60696;51.426;6.934;2023-03-26T18:17:07;7.40;99.90
35027;DHT22;60696;51.426;6.934;2023-03-26T18:20:01;7.40;99.90
35027;DHT22;60696;51.426;6.934;2023-03-26T18:22:30;7.40;99.90
35027;DHT22;60696;51.426;6.934;2023-03-26T18:24:59;7.40;99.90
35027;DHT22;60696;51.426;6.934;2023-03-26T18:27:32;7.30;99.90
35027;DHT22;60696;51.426;6.934;2023-03-26T18:30:01;7.30;99.90
35027;DHT22;60696;51.426;6.934;2023-03-26T18:32:49;7.20;99.90
35027;DHT22;60696;51.426;6.934;2023-03-26T18:35:19;7.20;99.90
35027;DHT22;60696;51.426;6.934;2023-03-26T18:37:47;7.10;99.90
35027;DHT22;60696;51.426;6.934;2023-03-26T18:40:16;7.10;99.90
35027;DHT22;60696;51.426;6.934;2023-03-26T18:42:47;7.10;99.90
35027;DHT22;60696;51.426;6.934;2023-03-26T18:45:35;7.00;99.90
35027;DHT22;60696;51.426;6.934;2023-03-26T18:48:07;7.00;99.90
35027;DHT22;60696;51.426;6.934;2023-03-26T18:50:38;7.00;99.90
35027;DHT22;60696;51.426;6.934;2023-03-26T18:53:06;7.00;99.90
35027;DHT22;60696;51.426;6.934;2023-03-26T18:55:34;6.90;99.90
35027;DHT22;60696;51.426;6.934;2023-03-26T18:58:33;6.90;99.90
35027;DHT22;60696;51.426;6.934;2023-03-26T19:01:07;7.00;99.90
35027;DHT22;60696;51.426;6.934;2023-03-26T19:03:36;6.90;99.90
35027;DHT22;60696;51.426;6.934;2023-03-26T19:06:06;6.90;99.90
35027;DHT22;60696;51.426;6.934;2023-03-26T19:08:35;6.90;99.90
35027;DHT22;60696;51.426;6.934;2023-03-26T19:11:05;6.80;99.90
35027;DHT22;60696;51.426;6.934;2023-03-26T19:13:34;6.80;99.90
35027;DHT22;60696;51.426;6.934;2023-03-26T19:16:06;6.80;99.90
35027;DHT22;60696;51.426;6.934;2023-03-26T19:18:32;6.80;99.90
35027;DHT22;60696;51.426;6.934;2023-03-26T19:21:01;6.80;99.90
35027;DHT22;60696;51.426;6.934;2023-03-26T19:23:39;6.80;99.90
35027;DHT22;60696;51.426;6.934;2023-03-26T19:26:07;6.70;99.90
35027;DHT22;60696;51.426;6.934;2023-03-26T19:28:39;6.80;99.90
35027;DHT22;60696;51.426;6.934;2023-03-26T19:31:07;6.70;99.90
35027;DHT22;60696;51.426;6.934;2023-03-26T19:33:35;6.70;99.90
35027;DHT22;60696;51.426;6.934;2023-03-26T19:36:16;6.70;99.90
35027;DHT22;60696;51.426;6.934;2023-03-26T19:41:33;6.70;99.90
35027;DHT22;60696;51.426;6.934;2023-03-26T19:44:02;6.60;99.90
35027;DHT22;60696;51.426;6.934;2023-03-26T19:46:33;6.60;99.90
35027;DHT22;60696;51.426;6.934;2023-03-26T19:48:58;6.60;99.90
35027;DHT22;60696;51.426;6.934;2023-03-26T19:53:59;6.80;99.90
35027;DHT22;60696;51.426;6.934;2023-03-26T19:56:25;6.90;99.90
35027;DHT22;60696;51.426;6.934;2023-03-26T19:58:52;6.90;99.90
35027;DHT22;60696;51.426;6.934;2023-03-26T20:03:48;6.90;99.90
35027;DHT22;60696;51.426;6.934;2023-03-26T20:06:16;6.90;99.90
35027;DHT22;60696;51.426;6.934;2023-03-26T20:08:42;6.80;99.90
35027;DHT22;60696;51.426;6.934;2023-03-26T20:11:19;6.50;99.90
35027;DHT22;60696;51.426;6.934;2023-03-26T20:13:45;6.40;99.90
35027;DHT22;60696;51.426;6.934;2023-03-26T20:18:51;6.30;99.90
35027;DHT22;60696;51.426;6.934;2023-03-26T20:21:17;6.30;99.90
35027;DHT22;60696;51.426;6.934;2023-03-26T20:23:43;6.20;99.90
35027;DHT22;60696;51.426;6.934;2023-03-26T20:26:13;6.20;99.90
35027;DHT22;60696;51.426;6.934;2023-03-26T20:28:39;6.20;99.90
35027;DHT22;60696;51.426;6.934;2023-03-26T20:31:10;6.20;99.90
35027;DHT22;60696;51.426;6.934;2023-03-26T20:33:38;6.20;99.90
35027;DHT22;60696;51.426;6.934;2023-03-26T20:36:04;6.20;99.90
35027;DHT22;60696;51.426;6.934;2023-03-26T20:38:30;6.10;99.90
35027;DHT22;60696;51.426;6.934;2023-03-26T20:40:56;6.10;99.90
35027;DHT22;60696;51.426;6.934;2023-03-26T20:43:22;6.10;99.90
35027;DHT22;60696;51.426;6.934;2023-03-26T20:45:49;6.00;99.90
35027;DHT22;60696;51.426;6.934;2023-03-26T20:48:16;5.90;99.90
35027;DHT22;60696;51.426;6.934;2023-03-26T20:50:41;6.00;99.90
35027;DHT22;60696;51.426;6.934;2023-03-26T20:53:13;5.90;99.90
35027;DHT22;60696;51.426;6.934;2023-03-26T20:55:44;5.80;99.90
35027;DHT22;60696;51.426;6.934;2023-03-26T20:58:15;5.80;99.90
35027;DHT22;60696;51.426;6.934;2023-03-26T21:00:47;5.80;99.90
35027;DHT22;60696;51.426;6.934;2023-03-26T21:03:15;5.80;99.90
35027;DHT22;60696;51.426;6.934;2023-03-26T21:05:41;5.80;99.90
35027;DHT22;60696;51.426;6.934;2023-03-26T21:08:14;5.70;99.90
35027;DHT22;60696;51.426;6.934;2023-03-26T21:10:40;5.70;99.90
35027;DHT22;60696;51.426;6.934;2023-03-26T21:13:11;5.70;99.90
35027;DHT22;60696;51.426;6.934;2023-03-26T21:15:38;5.60;99.90
35027;DHT22;60696;51.426;6.934;2023-03-26T21:18:04;5.60;99.90
35027;DHT22;60696;51.426;6.934;2023-03-26T21:20:30;5.60;99.90
35027;DHT22;60696;51.426;6.934;2023-03-26T21:26:11;5.50;99.90
35027;DHT22;60696;51.426;6.934;2023-03-26T21:28:47;5.40;99.90
35027;DHT22;60696;51.426;6.934;2023-03-26T21:31:16;5.40;99.90